sensor_id;sensor_type;location;lat;lon;timestamp;temperature;humidity
48264;DHT22;34086;51.076;13.722;2022-11-20T00:00:11;-4.00;99.90
48264;DHT22;34086;51.076;13.722;2022-11-20T00:01:18;-4.00;99.90
48264;DHT22;34086;51.076;13.722;2022-11-20T00:02:19;-4.00;99.90
48264;DHT22;34086;51.076;13.722;2022-11-20T00:03:19;-4.00;99.90
48264;DHT22;34086;51.076;13.722;2022-11-20T00:04:20;-4.00;99.90
48264;DHT22;34086;51.076;13.722;2022-11-20T00:05:21;-4.00;99.90
48264;DHT22;34086;51.076;13.722;2022-11-20T00:06:22;-4.00;99.90
48264;DHT22;34086;51.076;13.722;2022-11-20T00:07:24;-4.00;99.90
48264;DHT22;34086;51.076;13.722;2022-11-20T00:08:24;-4.00;99.90
48264;DHT22;34086;51.076;13.722;2022-11-20T00:09:25;-4.00;99.90
48264;DHT22;34086;51.076;13.722;2022-11-20T00:10:26;-4.00;99.90
48264;DHT22;34086;51.076;13.722;2022-11-20T00:11:28;-4.00;99.90
48264;DHT22;34086;51.076;13.722;2022-11-20T00:12:29;-4.00;99.90
48264;DHT22;34086;51.076;13.722;2022-11-20T00:13:30;-4.00;99.90
48264;DHT22;34086;51.076;13.722;2022-11-20T00:14:31;-4.00;99.90
48264;DHT22;34086;51.076;13.722;2022-11-20T00:15:32;-4.00;99.90
48264;DHT22;34086;51.076;13.722;2022-11-20T00:16:33;-4.00;99.90
48264;DHT22;34086;51.076;13.722;2022-11-20T00:17:34;-4.00;99.90
48264;DHT22;34086;51.076;13.722;2022-11-20T00:18:35;-4.00;99.90
48264;DHT22;34086;51.076;13.722;2022-11-20T00:19:35;-4.00;99.90
48264;DHT22;34086;51.076;13.722;2022-11-20T00:20:36;-4.00;99.90
48264;DHT22;34086;51.076;13.722;2022-11-20T00:21:37;-4.00;99.90
48264;DHT22;34086;51.076;13.722;2022-11-20T00:22:38;-3.90;99.90
48264;DHT22;34086;51.076;13.722;2022-11-20T00:23:38;-3.90;99.90
48264;DHT22;34086;51.076;13.722;2022-11-20T00:24:39;-3.90;99.90
48264;DHT22;34086;51.076;13.722;2022-11-20T00:25:40;-3.90;99.90
48264;DHT22;34086;51.076;13.722;2022-11-20T00:26:40;-3.90;99.90
48264;DHT22;34086;51.076;13.722;2022-11-20T00:27:42;-3.90;99.90
48264;DHT22;34086;51.076;13.722;2022-11-20T00:28:44;-3.90;99.90
48264;DHT22;34086;51.076;13.722;2022-11-20T00:29:45;-3.80;99.90
48264;DHT22;34086;51.076;13.722;2022-11-20T00:30:45;-3.80;99.90
48264;DHT22;34086;51.076;13.722;2022-11-20T00:31:46;-3.80;99.90
48264;DHT22;34086;51.076;13.722;2022-11-20T00:32:47;-3.80;99.90
48264;DHT22;34086;51.076;13.722;2022-11-20T00:33:47;-3.80;99.90
48264;DHT22;34086;51.076;13.722;2022-11-20T00:34:48;-3.80;99.90
48264;DHT22;34086;51.076;13.722;2022-11-20T00:35:49;-3.80;99.90
48264;DHT22;34086;51.076;13.722;2022-11-20T00:36:50;-3.80;99.90
48264;DHT22;34086;51.076;13.722;2022-11-20T00:37:50;-3.80;99.90
48264;DHT22;34086;51.076;13.722;2022-11-20T00:38:56;-3.70;99.90
48264;DHT22;34086;51.076;13.722;2022-11-20T00:39:57;-3.70;99.90
48264;DHT22;34086;51.076;13.722;2022-11-20T00:41:02;-3.70;99.90
48264;DHT22;34086;51.076;13.722;2022-11-20T00:42:03;-3.70;99.90
48264;DHT22;34086;51.076;13.722;2022-11-20T00:43:04;-3.70;99.90
48264;DHT22;34086;51.076;13.722;2022-11-20T00:44:05;-3.70;99.90
48264;DHT22;34086;51.076;13.722;2022-11-20T00:45:06;-3.70;99.90
48264;DHT22;34086;51.076;13.722;2022-11-20T00:46:09;-3.70;99.90
48264;DHT22;34086;51.076;13.722;2022-11-20T00:47:10;-3.70;99.90
48264;DHT22;34086;51.076;13.722;2022-11-20T00:48:10;-3.70;99.90
48264;DHT22;34086;51.076;13.722;2022-11-20T00:49:11;-3.70;99.90
48264;DHT22;34086;51.076;13.722;2022-11-20T00:50:12;-3.70;99.90
48264;DHT22;34086;51.076;13.722;2022-11-20T00:51:19;-3.80;99.90
48264;DHT22;34086;51.076;13.722;2022-11-20T00:52:19;-3.80;99.90
48264;DHT22;34086;51.076;13.722;2022-11-20T00:53:21;-3.80;99.90
48264;DHT22;34086;51.076;13.722;2022-11-20T00:54:21;-3.80;99.90
48264;DHT22;34086;51.076;13.722;2022-11-20T00:55:22;-3.80;99.90
48264;DHT22;34086;51.076;13.722;2022-11-20T00:56:24;-3.80;99.90
48264;DHT22;34086;51.076;13.722;2022-11-20T00:57:24;-3.80;99.90
48264;DHT22;34086;51.076;13.722;2022-11-20T00:58:30;-3.80;99.90
48264;DHT22;34086;51.076;13.722;2022-11-20T00:59:30;-3.80;99.90
48264;DHT22;34086;51.076;13.722;2022-11-20T01:00:31;-3.80;99.90
48264;DHT22;34086;51.076;13.722;2022-11-20T01:01:32;-3.80;99.90
48264;DHT22;34086;51.076;13.722;2022-11-20T01:02:33;-3.80;99.90
48264;DHT22;34086;51.076;13.722;2022-11-20T01:03:36;-3.80;99.90
48264;DHT22;34086;51.076;13.722;2022-11-20T01:04:37;-3.80;99.90
48264;DHT22;34086;51.076;13.722;2022-11-20T01:05:37;-3.80;99.90
48264;DHT22;34086;51.076;13.722;2022-11-20T01:06:39;-3.80;99.90
48264;DHT22;34086;51.076;13.722;2022-11-20T01:07:40;-3.80;99.90
48264;DHT22;34086;51.076;13.722;2022-11-20T01:08:41;-3.80;99.90
48264;DHT22;34086;51.076;13.722;2022-11-20T01:09:41;-3.80;99.90
48264;DHT22;34086;51.076;13.722;2022-11-20T01:10:42;-3.90;99.90
48264;DHT22;34086;51.076;13.722;2022-11-20T01:11:44;-3.80;99.90
48264;DHT22;34086;51.076;13.722;2022-11-20T01:12:45;-3.80;99.90
48264;DHT22;34086;51.076;13.722;2022-11-20T01:14:06;-3.90;99.90
48264;DHT22;34086;51.076;13.722;2022-11-20T01:15:08;-3.90;99.90
48264;DHT22;34086;51.076;13.722;2022-11-20T01:16:15;-3.90;99.90
48264;DHT22;34086;51.076;13.722;2022-11-20T01:17:16;-3.90;99.90
48264;DHT22;34086;51.076;13.722;2022-11-20T01:18:17;-3.90;99.90
48264;DHT22;34086;51.076;13.722;2022-11-20T01:19:20;-3.90;99.90
48264;DHT22;34086;51.076;13.722;2022-11-20T01:20:21;-3.90;99.90
48264;DHT22;34086;51.076;13.722;2022-11-20T01:21:25;-3.90;99.90
48264;DHT22;34086;51.076;13.722;2022-11-20T01:22:26;-3.90;99.90
48264;DHT22;34086;51.076;13.722;2022-11-20T01:23:26;-3.90;99.90
48264;DHT22;34086;51.076;13.722;2022-11-20T01:24:27;-3.90;99.90
48264;DHT22;34086;51.076;13.722;2022-11-20T01:25:28;-3.90;99.90
48264;DHT22;34086;51.076;13.722;2022-11-20T01:26:34;-3.90;99.90
48264;DHT22;34086;51.076;13.722;2022-11-20T01:27:35;-3.90;99.90
48264;DHT22;34086;51.076;13.722;2022-11-20T01:28:38;-3.90;99.90
48264;DHT22;34086;51.076;13.722;2022-11-20T01:29:39;-3.90;99.90
48264;DHT22;34086;51.076;13.722;2022-11-20T01:30:40;-3.90;99.90
48264;DHT22;34086;51.076;13.722;2022-11-20T01:31:41;-3.90;99.90
48264;DHT22;34086;51.076;13.722;2022-11-20T01:32:41;-3.90;99.90
48264;DHT22;34086;51.076;13.722;2022-11-20T01:33:43;-3.90;99.90
48264;DHT22;34086;51.076;13.722;2022-11-20T01:34:44;-4.00;99.90
48264;DHT22;34086;51.076;13.722;2022-11-20T01:35:45;-4.00;99.90
48264;DHT22;34086;51.076;13.722;2022-11-20T01:36:46;-4.00;99.90
48264;DHT22;34086;51.076;13.722;2022-11-20T01:37:47;-4.00;99.90
48264;DHT22;34086;51.076;13.722;2022-11-20T01:38:54;-3.90;99.90
48264;DHT22;34086;51.076;13.722;2022-11-20T01:39:55;-3.90;99.90
48264;DHT22;34086;51.076;13.722;2022-11-20T01:40:56;-4.00;99.90
48264;DHT22;34086;51.076;13.722;2022-11-20T01:41:56;-4.00;99.90
48264;DHT22;34086;51.076;13.722;2022-11-20T01:43:19;-4.00;99.90
48264;DHT22;34086;51.076;13.722;2022-11-20T01:44:56;-4.00;99.90
48264;DHT22;34086;51.076;13.722;2022-11-20T01:46:17;-4.00;99.90
48264;DHT22;34086;51.076;13.722;2022-11-20T01:47:34;-4.00;99.90
48264;DHT22;34086;51.076;13.722;2022-11-20T01:48:40;-4.00;99.90
48264;DHT22;34086;51.076;13.722;2022-11-20T01:49:50;-4.00;99.90
48264;DHT22;34086;51.076;13.722;2022-11-20T01:50:53;-4.00;99.90
48264;DHT22;34086;51.076;13.722;2022-11-20T01:52:01;-4.00;99.90
48264;DHT22;34086;51.076;13.722;2022-11-20T01:53:05;-4.00;99.90
48264;DHT22;34086;51.076;13.722;2022-11-20T01:54:12;-4.00;99.90
48264;DHT22;34086;51.076;13.722;2022-11-20T01:55:19;-4.00;99.90
48264;DHT22;34086;51.076;13.722;2022-11-20T01:56:22;-4.00;99.90
48264;DHT22;34086;51.076;13.722;2022-11-20T01:57:26;-4.00;99.90
48264;DHT22;34086;51.076;13.722;2022-11-20T01:58:34;-4.00;99.90
48264;DHT22;34086;51.076;13.722;2022-11-20T01:59:37;-4.00;99.90
48264;DHT22;34086;51.076;13.722;2022-11-20T02:00:40;-4.00;99.90
48264;DHT22;34086;51.076;13.722;2022-11-20T02:01:41;-4.10;99.90
48264;DHT22;34086;51.076;13.722;2022-11-20T02:02:49;-4.10;99.90
48264;DHT22;34086;51.076;13.722;2022-11-20T02:03:50;-4.10;99.90
48264;DHT22;34086;51.076;13.722;2022-11-20T02:04:54;-4.10;99.90
48264;DHT22;34086;51.076;13.722;2022-11-20T02:06:14;-4.10;99.90
48264;DHT22;34086;51.076;13.722;2022-11-20T02:07:16;-4.10;99.90
48264;DHT22;34086;51.076;13.722;2022-11-20T02:08:17;-4.10;99.90
48264;DHT22;34086;51.076;13.722;2022-11-20T02:09:18;-4.10;99.90
48264;DHT22;34086;51.076;13.722;2022-11-20T02:10:19;-4.10;99.90
48264;DHT22;34086;51.076;13.722;2022-11-20T02:11:19;-4.10;99.90
48264;DHT22;34086;51.076;13.722;2022-11-20T02:12:20;-4.10;99.90
48264;DHT22;34086;51.076;13.722;2022-11-20T02:13:40;-4.10;99.90
48264;DHT22;34086;51.076;13.722;2022-11-20T02:14:44;-4.10;99.90
48264;DHT22;34086;51.076;13.722;2022-11-20T02:15:45;-4.10;99.90
48264;DHT22;34086;51.076;13.722;2022-11-20T02:16:47;-4.10;99.90
48264;DHT22;34086;51.076;13.722;2022-11-20T02:17:48;-4.10;99.90
48264;DHT22;34086;51.076;13.722;2022-11-20T02:18:50;-4.10;99.90
48264;DHT22;34086;51.076;13.722;2022-11-20T02:19:51;-4.10;99.90
48264;DHT22;34086;51.076;13.722;2022-11-20T02:21:00;-4.10;99.90
48264;DHT22;34086;51.076;13.722;2022-11-20T02:22:05;-4.10;99.90
48264;DHT22;34086;51.076;13.722;2022-11-20T02:23:26;-4.10;99.90
48264;DHT22;34086;51.076;13.722;2022-11-20T02:24:29;-4.10;99.90
48264;DHT22;34086;51.076;13.722;2022-11-20T02:25:31;-4.10;99.90
48264;DHT22;34086;51.076;13.722;2022-11-20T02:27:52;-4.10;99.90
48264;DHT22;34086;51.076;13.722;2022-11-20T02:28:53;-4.10;99.90
48264;DHT22;34086;51.076;13.722;2022-11-20T02:30:01;-4.10;99.90
48264;DHT22;34086;51.076;13.722;2022-11-20T02:31:02;-4.10;99.90
48264;DHT22;34086;51.076;13.722;2022-11-20T02:32:03;-4.10;99.90
48264;DHT22;34086;51.076;13.722;2022-11-20T02:33:04;-4.10;99.90
48264;DHT22;34086;51.076;13.722;2022-11-20T02:34:05;-4.10;99.90
48264;DHT22;34086;51.076;13.722;2022-11-20T02:35:38;-4.10;99.90
48264;DHT22;34086;51.076;13.722;2022-11-20T02:36:32;-4.10;99.90
48264;DHT22;34086;51.076;13.722;2022-11-20T02:37:37;-4.10;99.90
48264;DHT22;34086;51.076;13.722;2022-11-20T02:38:39;-4.10;99.90
48264;DHT22;34086;51.076;13.722;2022-11-20T02:39:40;-4.10;99.90
48264;DHT22;34086;51.076;13.722;2022-11-20T02:40:41;-4.20;99.90
48264;DHT22;34086;51.076;13.722;2022-11-20T02:41:41;-4.20;99.90
48264;DHT22;34086;51.076;13.722;2022-11-20T02:42:42;-4.20;99.90
48264;DHT22;34086;51.076;13.722;2022-11-20T02:43:43;-4.20;99.90
48264;DHT22;34086;51.076;13.722;2022-11-20T02:44:44;-4.20;99.90
48264;DHT22;34086;51.076;13.722;2022-11-20T02:45:44;-4.20;99.90
48264;DHT22;34086;51.076;13.722;2022-11-20T02:46:45;-4.20;99.90
48264;DHT22;34086;51.076;13.722;2022-11-20T02:47:46;-4.20;99.90
48264;DHT22;34086;51.076;13.722;2022-11-20T02:48:47;-4.20;99.90
48264;DHT22;34086;51.076;13.722;2022-11-20T02:49:47;-4.20;99.90
48264;DHT22;34086;51.076;13.722;2022-11-20T02:50:48;-4.20;99.90
48264;DHT22;34086;51.076;13.722;2022-11-20T02:51:49;-4.30;99.90
48264;DHT22;34086;51.076;13.722;2022-11-20T02:52:49;-4.30;99.90
48264;DHT22;34086;51.076;13.722;2022-11-20T02:53:50;-4.20;99.90
48264;DHT22;34086;51.076;13.722;2022-11-20T02:54:51;-4.30;99.90
48264;DHT22;34086;51.076;13.722;2022-11-20T02:55:52;-4.30;99.90
48264;DHT22;34086;51.076;13.722;2022-11-20T02:56:53;-4.30;99.90
48264;DHT22;34086;51.076;13.722;2022-11-20T02:57:54;-4.30;99.90
48264;DHT22;34086;51.076;13.722;2022-11-20T02:58:55;-4.30;99.90
48264;DHT22;34086;51.076;13.722;2022-11-20T02:59:56;-4.30;99.90
48264;DHT22;34086;51.076;13.722;2022-11-20T03:00:56;-4.40;99.90
48264;DHT22;34086;51.076;13.722;2022-11-20T03:01:57;-4.40;99.90
48264;DHT22;34086;51.076;13.722;2022-11-20T03:02:58;-4.40;99.90
48264;DHT22;34086;51.076;13.722;2022-11-20T03:03:58;-4.50;99.90
48264;DHT22;34086;51.076;13.722;2022-11-20T03:04:59;-4.50;99.90
48264;DHT22;34086;51.076;13.722;2022-11-20T03:06:00;-4.50;99.90
48264;DHT22;34086;51.076;13.722;2022-11-20T03:07:01;-4.60;99.90
48264;DHT22;34086;51.076;13.722;2022-11-20T03:08:01;-4.60;99.90
48264;DHT22;34086;51.076;13.722;2022-11-20T03:09:02;-4.60;99.90
48264;DHT22;34086;51.076;13.722;2022-11-20T03:10:04;-4.60;99.90
48264;DHT22;34086;51.076;13.722;2022-11-20T03:11:06;-4.60;99.90
48264;DHT22;34086;51.076;13.722;2022-11-20T03:12:07;-4.70;99.90
48264;DHT22;34086;51.076;13.722;2022-11-20T03:13:08;-4.70;99.90
48264;DHT22;34086;51.076;13.722;2022-11-20T03:14:09;-4.70;99.90
48264;DHT22;34086;51.076;13.722;2022-11-20T03:15:09;-4.70;99.90
48264;DHT22;34086;51.076;13.722;2022-11-20T03:16:17;-4.70;99.90
48264;DHT22;34086;51.076;13.722;2022-11-20T03:17:19;-4.80;99.90
48264;DHT22;34086;51.076;13.722;2022-11-20T03:18:19;-4.80;99.90
48264;DHT22;34086;51.076;13.722;2022-11-20T03:19:20;-4.80;99.90
48264;DHT22;34086;51.076;13.722;2022-11-20T03:20:22;-4.80;99.90
48264;DHT22;34086;51.076;13.722;2022-11-20T03:21:23;-4.80;99.90
48264;DHT22;34086;51.076;13.722;2022-11-20T03:22:24;-4.80;99.90
48264;DHT22;34086;51.076;13.722;2022-11-20T03:23:25;-4.80;99.90
48264;DHT22;34086;51.076;13.722;2022-11-20T03:24:26;-4.80;99.90
48264;DHT22;34086;51.076;13.722;2022-11-20T03:25:27;-4.80;99.90
48264;DHT22;34086;51.076;13.722;2022-11-20T03:26:28;-4.80;99.90
48264;DHT22;34086;51.076;13.722;2022-11-20T03:27:32;-4.80;99.90
48264;DHT22;34086;51.076;13.722;2022-11-20T03:28:33;-4.80;99.90
48264;DHT22;34086;51.076;13.722;2022-11-20T03:29:35;-4.90;99.90
48264;DHT22;34086;51.076;13.722;2022-11-20T03:30:36;-4.90;99.90
48264;DHT22;34086;51.076;13.722;2022-11-20T03:31:38;-4.80;99.90
48264;DHT22;34086;51.076;13.722;2022-11-20T03:32:42;-4.80;99.90
48264;DHT22;34086;51.076;13.722;2022-11-20T03:33:44;-4.90;99.90
48264;DHT22;34086;51.076;13.722;2022-11-20T03:34:44;-4.90;99.90
48264;DHT22;34086;51.076;13.722;2022-11-20T03:35:45;-4.80;99.90
48264;DHT22;34086;51.076;13.722;2022-11-20T03:36:46;-4.80;99.90
48264;DHT22;34086;51.076;13.722;2022-11-20T03:37:46;-4.80;99.90
48264;DHT22;34086;51.076;13.722;2022-11-20T03:38:47;-4.90;99.90
48264;DHT22;34086;51.076;13.722;2022-11-20T03:39:48;-4.90;99.90
48264;DHT22;34086;51.076;13.722;2022-11-20T03:40:49;-4.90;99.90
48264;DHT22;34086;51.076;13.722;2022-11-20T03:41:50;-4.90;99.90
48264;DHT22;34086;51.076;13.722;2022-11-20T03:42:50;-4.90;99.90
48264;DHT22;34086;51.076;13.722;2022-11-20T03:43:56;-4.90;99.90
48264;DHT22;34086;51.076;13.722;2022-11-20T03:44:57;-4.90;99.90
48264;DHT22;34086;51.076;13.722;2022-11-20T03:45:58;-4.90;99.90
48264;DHT22;34086;51.076;13.722;2022-11-20T03:46:58;-4.90;99.90
48264;DHT22;34086;51.076;13.722;2022-11-20T03:47:59;-4.90;99.90
48264;DHT22;34086;51.076;13.722;2022-11-20T03:49:00;-4.90;99.90
48264;DHT22;34086;51.076;13.722;2022-11-20T03:50:01;-4.90;99.90
48264;DHT22;34086;51.076;13.722;2022-11-20T03:51:08;-4.90;99.90
48264;DHT22;34086;51.076;13.722;2022-11-20T03:52:09;-4.90;99.90
48264;DHT22;34086;51.076;13.722;2022-11-20T03:53:10;-4.90;99.90
48264;DHT22;34086;51.076;13.722;2022-11-20T03:54:11;-4.80;99.90
48264;DHT22;34086;51.076;13.722;2022-11-20T03:55:11;-4.80;99.90
48264;DHT22;34086;51.076;13.722;2022-11-20T03:56:14;-4.80;99.90
48264;DHT22;34086;51.076;13.722;2022-11-20T03:57:15;-4.80;99.90
48264;DHT22;34086;51.076;13.722;2022-11-20T03:58:16;-4.80;99.90
48264;DHT22;34086;51.076;13.722;2022-11-20T03:59:17;-4.90;99.90
48264;DHT22;34086;51.076;13.722;2022-11-20T04:00:17;-4.90;99.90
48264;DHT22;34086;51.076;13.722;2022-11-20T04:01:20;-4.90;99.90
48264;DHT22;34086;51.076;13.722;2022-11-20T04:02:22;-4.80;99.90
48264;DHT22;34086;51.076;13.722;2022-11-20T04:03:23;-4.90;99.90
48264;DHT22;34086;51.076;13.722;2022-11-20T04:04:23;-4.90;99.90
48264;DHT22;34086;51.076;13.722;2022-11-20T04:05:24;-4.90;99.90
48264;DHT22;34086;51.076;13.722;2022-11-20T04:06:30;-4.90;99.90
48264;DHT22;34086;51.076;13.722;2022-11-20T04:07:33;-4.90;99.90
48264;DHT22;34086;51.076;13.722;2022-11-20T04:08:33;-4.90;99.90
48264;DHT22;34086;51.076;13.722;2022-11-20T04:09:34;-4.90;99.90
48264;DHT22;34086;51.076;13.722;2022-11-20T04:10:35;-4.90;99.90
48264;DHT22;34086;51.076;13.722;2022-11-20T04:11:37;-4.90;99.90
48264;DHT22;34086;51.076;13.722;2022-11-20T04:12:39;-4.90;99.90
48264;DHT22;34086;51.076;13.722;2022-11-20T04:13:41;-4.90;99.90
48264;DHT22;34086;51.076;13.722;2022-11-20T04:14:42;-4.90;99.90
48264;DHT22;34086;51.076;13.722;2022-11-20T04:15:43;-4.90;99.90
48264;DHT22;34086;51.076;13.722;2022-11-20T04:16:44;-4.90;99.90
48264;DHT22;34086;51.076;13.722;2022-11-20T04:17:44;-4.90;99.90
48264;DHT22;34086;51.076;13.722;2022-11-20T04:18:45;-4.90;99.90
48264;DHT22;34086;51.076;13.722;2022-11-20T04:19:46;-4.70;99.90
48264;DHT22;34086;51.076;13.722;2022-11-20T04:20:47;-4.60;99.90
48264;DHT22;34086;51.076;13.722;2022-11-20T04:21:48;-4.60;99.90
48264;DHT22;34086;51.076;13.722;2022-11-20T04:22:51;-4.60;99.90
48264;DHT22;34086;51.076;13.722;2022-11-20T04:23:54;-4.60;99.90
48264;DHT22;34086;51.076;13.722;2022-11-20T04:24:55;-4.60;99.90
48264;DHT22;34086;51.076;13.722;2022-11-20T04:26:05;-4.60;99.90
48264;DHT22;34086;51.076;13.722;2022-11-20T04:27:05;-4.70;99.90
48264;DHT22;34086;51.076;13.722;2022-11-20T04:28:06;-4.60;99.90
48264;DHT22;34086;51.076;13.722;2022-11-20T04:29:11;-4.50;99.90
48264;DHT22;34086;51.076;13.722;2022-11-20T04:30:12;-4.40;99.90
48264;DHT22;34086;51.076;13.722;2022-11-20T04:31:18;-4.50;99.90
48264;DHT22;34086;51.076;13.722;2022-11-20T04:32:19;-4.50;99.90
48264;DHT22;34086;51.076;13.722;2022-11-20T04:33:20;-4.50;99.90
48264;DHT22;34086;51.076;13.722;2022-11-20T04:34:20;-4.50;99.90
48264;DHT22;34086;51.076;13.722;2022-11-20T04:35:21;-4.60;99.90
48264;DHT22;34086;51.076;13.722;2022-11-20T04:36:24;-4.60;99.90
48264;DHT22;34086;51.076;13.722;2022-11-20T04:37:25;-4.60;99.90
48264;DHT22;34086;51.076;13.722;2022-11-20T04:38:26;-4.70;99.90
48264;DHT22;34086;51.076;13.722;2022-11-20T04:39:27;-4.70;99.90
48264;DHT22;34086;51.076;13.722;2022-11-20T04:40:28;-4.70;99.90
48264;DHT22;34086;51.076;13.722;2022-11-20T04:41:31;-4.70;99.90
48264;DHT22;34086;51.076;13.722;2022-11-20T04:42:32;-4.70;99.90
48264;DHT22;34086;51.076;13.722;2022-11-20T04:43:33;-4.80;99.90
48264;DHT22;34086;51.076;13.722;2022-11-20T04:44:34;-4.80;99.90
48264;DHT22;34086;51.076;13.722;2022-11-20T04:45:35;-4.80;99.90
48264;DHT22;34086;51.076;13.722;2022-11-20T04:46:40;-4.80;99.90
48264;DHT22;34086;51.076;13.722;2022-11-20T04:47:41;-4.80;99.90
48264;DHT22;34086;51.076;13.722;2022-11-20T04:48:42;-4.80;99.90
48264;DHT22;34086;51.076;13.722;2022-11-20T04:49:43;-4.80;99.90
48264;DHT22;34086;51.076;13.722;2022-11-20T04:50:44;-4.80;99.90
48264;DHT22;34086;51.076;13.722;2022-11-20T04:51:45;-4.80;99.90
48264;DHT22;34086;51.076;13.722;2022-11-20T04:52:45;-4.80;99.90
48264;DHT22;34086;51.076;13.722;2022-11-20T04:53:46;-4.80;99.90
48264;DHT22;34086;51.076;13.722;2022-11-20T04:54:47;-4.80;99.90
48264;DHT22;34086;51.076;13.722;2022-11-20T04:55:48;-4.80;99.90
48264;DHT22;34086;51.076;13.722;2022-11-20T04:56:49;-4.80;99.90
48264;DHT22;34086;51.076;13.722;2022-11-20T04:57:50;-4.80;99.90
48264;DHT22;34086;51.076;13.722;2022-11-20T04:58:52;-4.80;99.90
48264;DHT22;34086;51.076;13.722;2022-11-20T04:59:52;-4.80;99.90
48264;DHT22;34086;51.076;13.722;2022-11-20T05:00:53;-4.80;99.90
48264;DHT22;34086;51.076;13.722;2022-11-20T05:01:54;-4.80;99.90
48264;DHT22;34086;51.076;13.722;2022-11-20T05:02:55;-4.80;99.90
48264;DHT22;34086;51.076;13.722;2022-11-20T05:03:55;-4.80;99.90
48264;DHT22;34086;51.076;13.722;2022-11-20T05:04:56;-4.80;99.90
48264;DHT22;34086;51.076;13.722;2022-11-20T05:06:00;-4.70;99.90
48264;DHT22;34086;51.076;13.722;2022-11-20T05:07:01;-4.70;99.90
48264;DHT22;34086;51.076;13.722;2022-11-20T05:08:03;-4.70;99.90
48264;DHT22;34086;51.076;13.722;2022-11-20T05:09:03;-4.70;99.90
48264;DHT22;34086;51.076;13.722;2022-11-20T05:10:04;-4.70;99.90
48264;DHT22;34086;51.076;13.722;2022-11-20T05:11:07;-4.70;99.90
48264;DHT22;34086;51.076;13.722;2022-11-20T05:12:09;-4.70;99.90
48264;DHT22;34086;51.076;13.722;2022-11-20T05:13:09;-4.70;99.90
48264;DHT22;34086;51.076;13.722;2022-11-20T05:14:10;-4.70;99.90
48264;DHT22;34086;51.076;13.722;2022-11-20T05:15:11;-4.80;99.90
48264;DHT22;34086;51.076;13.722;2022-11-20T05:16:19;-4.80;99.90
48264;DHT22;34086;51.076;13.722;2022-11-20T05:17:20;-4.80;99.90
48264;DHT22;34086;51.076;13.722;2022-11-20T05:18:22;-4.80;99.90
48264;DHT22;34086;51.076;13.722;2022-11-20T05:19:22;-4.80;99.90
48264;DHT22;34086;51.076;13.722;2022-11-20T05:20:23;-4.80;99.90
48264;DHT22;34086;51.076;13.722;2022-11-20T05:21:24;-4.80;99.90
48264;DHT22;34086;51.076;13.722;2022-11-20T05:22:25;-4.80;99.90
48264;DHT22;34086;51.076;13.722;2022-11-20T05:23:26;-4.80;99.90
48264;DHT22;34086;51.076;13.722;2022-11-20T05:24:26;-4.80;99.90
48264;DHT22;34086;51.076;13.722;2022-11-20T05:25:27;-4.80;99.90
48264;DHT22;34086;51.076;13.722;2022-11-20T05:26:28;-4.80;99.90
48264;DHT22;34086;51.076;13.722;2022-11-20T05:27:29;-4.90;99.90
48264;DHT22;34086;51.076;13.722;2022-11-20T05:28:30;-4.90;99.90
48264;DHT22;34086;51.076;13.722;2022-11-20T05:29:31;-4.90;99.90
48264;DHT22;34086;51.076;13.722;2022-11-20T05:30:32;-4.90;99.90
48264;DHT22;34086;51.076;13.722;2022-11-20T05:31:33;-5.00;99.90
48264;DHT22;34086;51.076;13.722;2022-11-20T05:32:33;-5.00;99.90
48264;DHT22;34086;51.076;13.722;2022-11-20T05:33:35;-5.00;99.90
48264;DHT22;34086;51.076;13.722;2022-11-20T05:34:36;-5.00;99.90
48264;DHT22;34086;51.076;13.722;2022-11-20T05:35:37;-5.00;99.90
48264;DHT22;34086;51.076;13.722;2022-11-20T05:36:37;-5.00;99.90
48264;DHT22;34086;51.076;13.722;2022-11-20T05:37:38;-5.10;99.90
48264;DHT22;34086;51.076;13.722;2022-11-20T05:38:39;-5.10;99.90
48264;DHT22;34086;51.076;13.722;2022-11-20T05:39:40;-5.10;99.90
48264;DHT22;34086;51.076;13.722;2022-11-20T05:40:41;-5.10;99.90
48264;DHT22;34086;51.076;13.722;2022-11-20T05:41:41;-5.10;99.90
48264;DHT22;34086;51.076;13.722;2022-11-20T05:42:42;-5.20;99.90
48264;DHT22;34086;51.076;13.722;2022-11-20T05:43:46;-5.20;99.90
48264;DHT22;34086;51.076;13.722;2022-11-20T05:44:47;-5.20;99.90
48264;DHT22;34086;51.076;13.722;2022-11-20T05:45:54;-5.20;99.90
48264;DHT22;34086;51.076;13.722;2022-11-20T05:46:55;-5.20;99.90
48264;DHT22;34086;51.076;13.722;2022-11-20T05:47:59;-5.20;99.90
48264;DHT22;34086;51.076;13.722;2022-11-20T05:49:00;-5.20;99.90
48264;DHT22;34086;51.076;13.722;2022-11-20T05:50:01;-5.20;99.90
48264;DHT22;34086;51.076;13.722;2022-11-20T05:51:03;-5.30;99.90
48264;DHT22;34086;51.076;13.722;2022-11-20T05:52:04;-5.30;99.90
48264;DHT22;34086;51.076;13.722;2022-11-20T05:53:05;-5.30;99.90
48264;DHT22;34086;51.076;13.722;2022-11-20T05:54:06;-5.30;99.90
48264;DHT22;34086;51.076;13.722;2022-11-20T05:55:07;-5.30;99.90
48264;DHT22;34086;51.076;13.722;2022-11-20T05:56:11;-5.30;99.90
48264;DHT22;34086;51.076;13.722;2022-11-20T05:57:12;-5.30;99.90
48264;DHT22;34086;51.076;13.722;2022-11-20T05:58:12;-5.30;99.90
48264;DHT22;34086;51.076;13.722;2022-11-20T05:59:13;-5.30;99.90
48264;DHT22;34086;51.076;13.722;2022-11-20T06:00:14;-5.30;99.90
48264;DHT22;34086;51.076;13.722;2022-11-20T06:01:23;-5.30;99.90
48264;DHT22;34086;51.076;13.722;2022-11-20T06:02:24;-5.30;99.90
48264;DHT22;34086;51.076;13.722;2022-11-20T06:03:25;-5.30;99.90
48264;DHT22;34086;51.076;13.722;2022-11-20T06:04:26;-5.30;99.90
48264;DHT22;34086;51.076;13.722;2022-11-20T06:05:27;-5.30;99.90
48264;DHT22;34086;51.076;13.722;2022-11-20T06:06:27;-5.30;99.90
48264;DHT22;34086;51.076;13.722;2022-11-20T06:07:28;-5.40;99.90
48264;DHT22;34086;51.076;13.722;2022-11-20T06:08:29;-5.30;99.90
48264;DHT22;34086;51.076;13.722;2022-11-20T06:09:30;-5.40;99.90
48264;DHT22;34086;51.076;13.722;2022-11-20T06:10:30;-5.40;99.90
48264;DHT22;34086;51.076;13.722;2022-11-20T06:11:31;-5.30;99.90
48264;DHT22;34086;51.076;13.722;2022-11-20T06:12:32;-5.30;99.90
48264;DHT22;34086;51.076;13.722;2022-11-20T06:13:36;-5.30;99.90
48264;DHT22;34086;51.076;13.722;2022-11-20T06:14:37;-5.40;99.90
48264;DHT22;34086;51.076;13.722;2022-11-20T06:15:38;-5.30;99.90
48264;DHT22;34086;51.076;13.722;2022-11-20T06:16:38;-5.30;99.90
48264;DHT22;34086;51.076;13.722;2022-11-20T06:17:39;-5.30;99.90
48264;DHT22;34086;51.076;13.722;2022-11-20T06:18:39;-5.30;99.90
48264;DHT22;34086;51.076;13.722;2022-11-20T06:19:40;-5.20;99.90
48264;DHT22;34086;51.076;13.722;2022-11-20T06:20:41;-5.10;99.90
48264;DHT22;34086;51.076;13.722;2022-11-20T06:21:42;-5.10;99.90
48264;DHT22;34086;51.076;13.722;2022-11-20T06:22:42;-5.10;99.90
48264;DHT22;34086;51.076;13.722;2022-11-20T06:23:43;-5.00;99.90
48264;DHT22;34086;51.076;13.722;2022-11-20T06:24:44;-4.90;99.90
48264;DHT22;34086;51.076;13.722;2022-11-20T06:25:45;-4.90;99.90
48264;DHT22;34086;51.076;13.722;2022-11-20T06:29:08;-5.00;99.90